Hovedside
METAR-TAF:

METAR-TAF

Lufthavner :

Ouargla, Algerie

breddegrad: 31-55N, lengdegrad: 005-24E, høyde over havet: 141 m

METAR: fraværende

Tid: 21:28 (20:28 UTC)

Varsel

Denne rapporten ble laget for 3 timer og 28 minutter siden, klokken 17:00 UTC
Varsel gyldig fra 18. klokken 18 UTC til 19. klokken 03 UTC
Vind 5 kt fra Nordvest
Sikt 10 km eller mer
ingen skyer under 1500 m og ingen bygeskyer

TAF: DAUU 181700Z 1818/1903 32005KT CAVOK

Værobservasjoner og værvarsel for over 4000 flyplasser (METAR- og TAF-rapporter).

Tilgjengelige stasjoner er representert av de røde og gule prikkene på kartet.

Hold musepekeren over prikken for å se navnet på stasjonen.

Klikk så for å se værobservasjoner og -varsler.

For å forandre kartet kan du klikke på den grønne knappen med svart kryss for å zoome inn, på den grønne knappen med strek for å zoome ut, eller på de grønne pilene for å se tilstøtende kart.


METAR-TAF: